Time;durP1;ratioP1;P1;durP2;ratioP2;P2;SDS_P1;SDS_P2;PMS_P1;PMS_P2;Temp;Humidity;BMP_temperature;BMP_pressure;BME280_temperature;BME280_humidity;BME280_pressure;Samples;Min_cycle;Max_cycle;Signal;HPM_P1;HPM_P2
2022/03/12 00:01:36;;;;;;;26.77;24.38;;;4.20;83.40;;;;;;4991198;28;20049;-74
2022/03/12 00:04:06;;;;;;;25.75;23.40;;;4.20;83.20;;;;;;5013631;28;20191;-73
2022/03/12 00:06:34;;;;;;;26.17;24.10;;;4.20;83.30;;;;;;5011638;28;20045;-74
2022/03/12 00:09:01;;;;;;;25.30;23.27;;;4.20;83.10;;;;;;4993724;28;20044;-72
2022/03/12 00:11:35;;;;;;;25.50;23.30;;;4.20;82.90;;;;;;5011819;28;20268;-72
2022/03/12 00:14:03;;;;;;;26.42;24.13;;;4.20;83.00;;;;;;5011987;28;20049;-75
2022/03/12 00:16:32;;;;;;;26.02;23.85;;;4.10;82.80;;;;;;4993884;28;20478;-74
2022/03/12 00:19:02;;;;;;;24.52;22.52;;;4.10;82.60;;;;;;4993404;28;20318;-72
2022/03/12 00:21:33;;;;;;;25.45;23.60;;;4.10;82.70;;;;;;4993876;28;20680;-73
2022/03/12 00:24:00;;;;;;;25.67;23.73;;;4.00;82.90;;;;;;4995167;28;20145;-74
2022/03/12 00:26:29;;;;;;;25.25;23.35;;;4.00;83.00;;;;;;4993213;28;20052;-73
2022/03/12 00:28:57;;;;;;;26.45;24.33;;;4.00;82.60;;;;;;4976067;28;20058;-79
2022/03/12 00:31:25;;;;;;;25.63;23.45;;;4.00;82.40;;;;;;4990579;28;20464;-72
2022/03/12 00:33:53;;;;;;;26.20;23.90;;;4.00;82.60;;;;;;4993825;28;20077;-74
2022/03/12 00:36:20;;;;;;;24.98;23.00;;;3.90;82.60;;;;;;4994576;28;20367;-74
2022/03/12 00:38:48;;;;;;;25.58;23.70;;;3.90;82.40;;;;;;4993256;28;20504;-74
2022/03/12 00:41:16;;;;;;;25.83;23.60;;;3.90;82.60;;;;;;4975043;28;20045;-72
2022/03/12 00:43:44;;;;;;;25.75;23.55;;;3.90;82.20;;;;;;4994993;28;20404;-73
2022/03/12 00:46:12;;;;;;;25.75;23.65;;;3.90;82.50;;;;;;5011386;28;20049;-75
2022/03/12 00:48:39;;;;;;;25.23;23.20;;;3.90;82.40;;;;;;5011423;28;20077;-76
2022/03/12 00:51:09;;;;;;;26.52;24.42;;;3.90;82.30;;;;;;4993980;28;20041;-72
2022/03/12 00:53:37;;;;;;;26.25;24.23;;;3.80;82.60;;;;;;4993842;28;20061;-71
2022/03/12 00:56:06;;;;;;;24.35;22.65;;;3.80;82.60;;;;;;5011300;28;20100;-73
2022/03/12 00:58:35;;;;;;;25.73;23.35;;;3.70;82.20;;;;;;4994118;28;20532;-76
2022/03/12 01:01:03;;;;;;;24.90;22.90;;;3.70;82.90;;;;;;4990105;28;20107;-73
2022/03/12 01:03:30;;;;;;;24.67;22.67;;;3.70;82.70;;;;;;4994255;28;20666;-71
2022/03/12 01:06:05;;;;;;;24.98;23.17;;;3.60;82.60;;;;;;4976919;28;20151;-74
2022/03/12 01:08:33;;;;;;;;;;;3.60;82.20;;;;;;5011860;28;20482;-71
2022/03/12 01:11:04;;;;;;;25.27;22.88;;;3.60;83.10;;;;;;5008944;28;19925;-73
2022/03/12 01:13:31;;;;;;;24.80;22.90;;;3.50;82.40;;;;;;4994231;28;20115;-71
2022/03/12 01:15:58;;;;;;;25.63;23.42;;;3.60;82.00;;;;;;5010513;28;20107;-73
2022/03/12 01:18:26;;;;;;;25.45;23.25;;;3.60;82.10;;;;;;4992782;28;20381;-71
2022/03/12 01:20:54;;;;;;;24.08;22.45;;;3.50;81.90;;;;;;4994860;28;20112;-74
2022/03/12 01:23:24;;;;;;;24.55;22.80;;;3.50;81.60;;;;;;4997821;28;20053;-72
2022/03/12 01:25:52;;;;;;;23.52;21.85;;;3.50;81.80;;;;;;4995385;28;20049;-75
2022/03/12 01:28:19;;;;;;;24.83;22.92;;;3.50;81.90;;;;;;5014473;28;20057;-73
2022/03/12 01:30:45;;;;;;;25.23;23.23;;;3.50;81.70;;;;;;4987946;28;20133;-73
2022/03/12 01:33:12;;;;;;;23.73;21.90;;;3.50;82.00;;;;;;5014494;28;20057;-75
2022/03/12 01:35:39;;;;;;;23.25;21.65;;;3.40;81.30;;;;;;5013820;28;20057;-73
2022/03/12 01:38:07;;;;;;;24.90;22.83;;;3.50;81.50;;;;;;4978632;28;20057;-73
2022/03/12 01:40:34;;;;;;;23.63;21.92;;;3.40;81.20;;;;;;4994121;28;20044;-73
2022/03/12 01:43:04;;;;;;;24.90;22.90;;;3.40;81.20;;;;;;4996108;28;20061;-76
2022/03/12 01:45:32;;;;;;;26.08;23.95;;;3.40;81.00;;;;;;4994837;28;20049;-71
2022/03/12 01:48:06;;;;;;;23.85;22.27;;;3.50;81.30;;;;;;4996497;28;20259;-76
2022/03/12 01:50:36;;;;;;;24.00;22.23;;;3.40;81.10;;;;;;4994493;28;20289;-73
2022/03/12 01:53:07;;;;;;;23.17;21.63;;;3.40;80.90;;;;;;4996678;28;20485;-74
2022/03/12 01:55:33;;;;;;;23.60;21.77;;;3.40;81.10;;;;;;5012087;28;20576;-72
2022/03/12 01:58:03;;;;;;;24.23;22.40;;;3.40;81.10;;;;;;5014597;28;20404;-73
2022/03/12 02:00:41;;;;;;;24.48;22.73;;;3.30;81.20;;;;;;4995241;28;20046;-73
2022/03/12 02:03:13;;;;;;;24.00;22.20;;;3.30;80.90;;;;;;4994983;28;20061;-72
2022/03/12 02:05:41;;;;;;;24.15;22.20;;;3.30;81.00;;;;;;4995016;28;20052;-76
2022/03/12 02:08:14;;;;;;;24.25;22.48;;;3.30;81.10;;;;;;4996143;28;20054;-73
2022/03/12 02:10:42;;;;;;;23.50;21.60;;;3.30;81.20;;;;;;4977323;28;20041;-73
2022/03/12 02:13:10;;;;;;;23.17;21.42;;;3.30;81.20;;;;;;5013680;28;20049;-75
2022/03/12 02:15:38;;;;;;;23.60;21.90;;;3.30;81.20;;;;;;4994800;28;20049;-74
2022/03/12 02:18:05;;;;;;;24.95;22.67;;;3.20;81.60;;;;;;4996166;28;20086;-72
2022/03/12 02:20:38;;;;;;;24.67;22.67;;;3.20;81.80;;;;;;4993961;28;20646;-74
2022/03/12 02:23:09;;;;;;;23.10;21.33;;;3.20;82.00;;;;;;4994819;28;20049;-70
2022/03/12 02:25:36;;;;;;;23.38;21.70;;;3.20;81.70;;;;;;5012873;28;20045;-73
2022/03/12 02:28:14;;;;;;;25.13;22.95;;;3.10;81.90;;;;;;5014069;28;20053;-73
2022/03/12 02:30:55;;;;;;;23.73;22.13;;;3.10;82.10;;;;;;5006921;28;20417;-74
2022/03/12 02:33:28;;;;;;;22.77;21.13;;;3.10;82.50;;;;;;4995109;28;20136;-72
2022/03/12 02:35:57;;;;;;;24.65;22.88;;;3.10;81.70;;;;;;4995289;28;20325;-72
2022/03/12 02:38:27;;;;;;;23.75;21.85;;;3.10;81.80;;;;;;5013397;28;20045;-69
2022/03/12 02:40:56;;;;;;;24.55;22.55;;;3.10;81.50;;;;;;4993623;28;20052;-71
2022/03/12 02:43:26;;;;;;;23.73;21.85;;;3.00;81.80;;;;;;4992831;28;20390;-75
2022/03/12 02:45:57;;;;;;;24.90;22.90;;;3.10;82.00;;;;;;5011628;28;20049;-76
2022/03/12 02:48:25;;;;;;;23.42;21.70;;;3.00;82.10;;;;;;4975753;28;20162;-73
2022/03/12 02:50:53;;;;;;;24.52;22.52;;;3.00;82.20;;;;;;4972925;28;20069;-73
2022/03/12 02:53:20;;;;;;;24.98;22.75;;;2.90;82.00;;;;;;4996797;28;20237;-74
2022/03/12 02:55:47;;;;;;;25.15;23.15;;;3.00;82.30;;;;;;4994346;28;20088;-70
2022/03/12 02:58:16;;;;;;;24.65;22.63;;;3.00;82.00;;;;;;4994499;28;20306;-74
2022/03/12 03:00:43;;;;;;;25.67;23.58;;;2.90;82.50;;;;;;4975615;28;20053;-71
2022/03/12 03:03:10;;;;;;;25.15;22.60;;;2.90;83.00;;;;;;4994791;28;20073;-75
2022/03/12 03:05:47;;;;;;;23.20;21.50;;;2.90;82.90;;;;;;5011963;28;20045;-75
2022/03/12 03:08:20;;;;;;;23.63;21.67;;;2.80;82.80;;;;;;4995801;28;20064;-73
2022/03/12 03:10:50;;;;;;;22.85;21.05;;;2.80;83.00;;;;;;4992665;28;20057;-75
2022/03/12 03:13:17;;;;;;;24.20;22.23;;;2.80;82.70;;;;;;5012290;28;20218;-72
2022/03/12 03:15:56;;;;;;;23.35;21.48;;;2.80;83.00;;;;;;4976848;28;20046;-72
2022/03/12 03:18:27;;;;;;;24.35;22.42;;;2.80;82.80;;;;;;4993512;28;20647;-73
2022/03/12 03:20:55;;;;;;;24.67;22.63;;;2.70;82.90;;;;;;4992058;28;20209;-72
2022/03/12 03:23:28;;;;;;;24.35;22.48;;;2.70;83.40;;;;;;5011040;28;20167;-74
2022/03/12 03:25:56;;;;;;;24.10;22.40;;;2.70;83.10;;;;;;4991226;28;20431;-74
2022/03/12 03:28:23;;;;;;;25.65;23.33;;;2.60;83.40;;;;;;4977180;28;20049;-72
2022/03/12 03:30:50;;;;;;;24.75;22.83;;;2.60;85.10;;;;;;4985453;28;20060;-72
2022/03/12 03:33:21;;;;;;;24.95;22.90;;;2.60;83.90;;;;;;5010691;28;20044;-69
2022/03/12 03:35:49;;;;;;;23.98;22.13;;;2.60;83.70;;;;;;4991945;28;20127;-72
2022/03/12 03:38:16;;;;;;;25.25;23.25;;;2.60;83.80;;;;;;5009933;28;20548;-71
2022/03/12 03:40:45;;;;;;;25.60;23.67;;;2.60;83.80;;;;;;4974589;28;20037;-72
2022/03/12 03:43:14;;;;;;;24.80;23.00;;;2.60;83.70;;;;;;4975558;28;20202;-71
2022/03/12 03:45:44;;;;;;;24.83;23.02;;;2.60;84.10;;;;;;5007345;28;20060;-70
2022/03/12 03:48:21;;;;;;;25.05;23.13;;;2.60;84.20;;;;;;4992774;28;20080;-72
2022/03/12 03:50:49;;;;;;;23.33;21.42;;;2.60;84.70;;;;;;5009346;28;20041;-73
2022/03/12 03:53:19;;;;;;;24.20;22.40;;;2.60;83.70;;;;;;5008981;28;20137;-72
2022/03/12 03:55:47;;;;;;;25.83;23.70;;;2.60;83.70;;;;;;5009337;28;20049;-71
2022/03/12 03:58:15;;;;;;;24.73;22.90;;;2.60;83.80;;;;;;5011927;28;20312;-70
2022/03/12 04:00:52;;;;;;;23.83;21.70;;;2.60;83.70;;;;;;4995892;28;20045;-71
2022/03/12 04:03:19;;;;;;;24.67;22.67;;;2.60;83.60;;;;;;4992902;28;20061;-71
2022/03/12 04:05:47;;;;;;;24.75;22.77;;;2.70;84.30;;;;;;4973979;28;20045;-71
2022/03/12 04:08:14;;;;;;;24.80;22.85;;;2.70;84.10;;;;;;5010633;28;20053;-71
2022/03/12 04:10:41;;;;;;;24.42;22.52;;;2.70;83.70;;;;;;5008465;28;20461;-72
2022/03/12 04:13:19;;;;;;;24.83;22.92;;;2.70;83.70;;;;;;5009082;28;20057;-73
2022/03/12 04:15:52;;;;;;;24.33;22.23;;;2.60;84.20;;;;;;4987424;28;20207;-72
2022/03/12 04:18:21;;;;;;;25.77;23.52;;;2.60;83.90;;;;;;5006202;28;20052;-71
2022/03/12 04:20:49;;;;;;;23.52;21.70;;;2.60;84.10;;;;;;5005081;28;20057;-71
2022/03/12 04:23:18;;;;;;;25.02;23.02;;;2.70;84.00;;;;;;4992221;28;20464;-72
2022/03/12 04:25:46;;;;;;;25.50;23.50;;;2.60;84.30;;;;;;4973158;28;20056;-71
2022/03/12 04:28:13;;;;;;;24.77;22.83;;;2.60;83.80;;;;;;5008602;28;20041;-72
2022/03/12 04:30:40;;;;;;;25.92;23.75;;;2.70;83.70;;;;;;5003077;28;20057;-71
2022/03/12 04:33:10;;;;;;;26.35;24.15;;;2.70;84.00;;;;;;5010612;28;20069;-72
2022/03/12 04:35:39;;;;;;;27.70;25.02;;;2.70;83.30;;;;;;4973394;28;20057;-71
2022/03/12 04:38:09;;;;;;;26.05;24.05;;;2.70;83.30;;;;;;5008102;28;20127;-71
2022/03/12 04:40:38;;;;;;;26.92;24.63;;;2.70;83.20;;;;;;5005924;28;20267;-76
2022/03/12 04:43:07;;;;;;;27.63;25.02;;;2.70;83.50;;;;;;4991441;28;20343;-74
2022/03/12 04:45:34;;;;;;;26.23;24.20;;;2.70;83.40;;;;;;4989083;28;20049;-74
2022/03/12 04:48:01;;;;;;;25.92;23.58;;;2.70;83.50;;;;;;5008497;28;20131;-76
2022/03/12 04:50:28;;;;;;;26.50;24.38;;;2.70;84.10;;;;;;4988452;28;20226;-74
2022/03/12 04:52:58;;;;;;;27.20;25.10;;;2.60;84.30;;;;;;5005471;28;20062;-72
2022/03/12 04:55:27;;;;;;;27.65;25.25;;;2.60;84.40;;;;;;5010497;28;20053;-72
2022/03/12 04:57:54;;;;;;;27.15;24.95;;;2.60;84.60;;;;;;4993479;28;20060;-72
2022/03/12 05:00:27;;;;;;;28.05;25.63;;;2.50;84.30;;;;;;4975045;28;20057;-73
2022/03/12 05:03:18;;;;;;;27.77;25.27;;;2.60;84.40;;;;;;4993714;28;20060;-72
2022/03/12 05:05:48;;;;;;;29.23;26.83;;;2.60;84.60;;;;;;4978222;28;20817;-75
2022/03/12 05:08:17;;;;;;;28.00;25.60;;;2.50;84.80;;;;;;4994725;28;20053;-74
2022/03/12 05:10:49;;;;;;;28.75;26.55;;;2.50;84.70;;;;;;4993027;28;20068;-74
2022/03/12 05:13:22;;;;;;;28.40;26.02;;;2.50;85.00;;;;;;5014345;28;20322;-75
2022/03/12 05:15:55;;;;;;;29.00;26.45;;;2.50;84.80;;;;;;4993206;28;20217;-75
2022/03/12 05:18:23;;;;;;;28.20;25.88;;;2.50;85.10;;;;;;5013140;28;20463;-75
2022/03/12 05:20:51;;;;;;;27.88;25.75;;;2.50;84.70;;;;;;5008857;28;20353;-73
2022/03/12 05:23:19;;;;;;;29.20;26.80;;;2.50;84.50;;;;;;5014567;28;20057;-73
2022/03/12 05:25:48;;;;;;;30.13;27.73;;;2.50;84.70;;;;;;4992451;28;20448;-76
2022/03/12 05:28:22;;;;;;;29.50;27.05;;;2.50;84.90;;;;;;5025991;28;20473;-73
2022/03/12 05:30:51;;;;;;;29.55;26.95;;;2.60;85.60;;;;;;4989915;28;20046;-75
2022/03/12 05:33:19;;;;;;;29.98;27.38;;;2.60;85.30;;;;;;5013697;28;20057;-74
2022/03/12 05:35:49;;;;;;;30.38;27.88;;;2.60;85.20;;;;;;4977816;28;20536;-73
2022/03/12 05:38:16;;;;;;;29.90;27.30;;;2.60;85.60;;;;;;4995276;28;20053;-72
2022/03/12 05:40:47;;;;;;;29.90;26.95;;;2.60;85.20;;;;;;4993175;28;20124;-73
2022/03/12 05:43:15;;;;;;;30.13;27.55;;;2.60;85.30;;;;;;5011735;28;20051;-74
2022/03/12 05:45:46;;;;;;;35.42;32.65;;;2.70;85.10;;;;;;4993738;28;20056;-74
2022/03/12 05:48:14;;;;;;;34.88;32.03;;;2.60;85.00;;;;;;4999115;28;20385;-75
2022/03/12 05:50:45;;;;;;;34.50;32.13;;;2.70;85.40;;;;;;5010161;28;20065;-74
2022/03/12 05:53:14;;;;;;;35.85;33.15;;;2.60;85.40;;;;;;4993529;28;20053;-75
2022/03/12 05:55:41;;;;;;;34.80;32.25;;;2.60;85.20;;;;;;5010714;28;20544;-74
2022/03/12 05:58:10;;;;;;;35.13;32.45;;;2.70;85.60;;;;;;4978359;28;20049;-74
2022/03/12 06:00:39;;;;;;;34.80;32.30;;;2.70;85.10;;;;;;4995782;28;20229;-75
2022/03/12 06:03:10;;;;;;;34.20;31.70;;;2.70;85.90;;;;;;5010993;28;20148;-74
2022/03/12 06:05:40;;;;;;;34.03;31.63;;;2.80;85.70;;;;;;4977679;28;20171;-74
2022/03/12 06:08:14;;;;;;;35.53;32.78;;;2.80;86.70;;;;;;4994945;28;20386;-74
2022/03/12 06:10:44;;;;;;;33.35;30.90;;;2.60;85.90;;;;;;5008835;28;20057;-74
2022/03/12 06:13:11;;;;;;;34.80;31.95;;;2.60;86.60;;;;;;4994756;28;20061;-74
2022/03/12 06:15:39;;;;;;;33.67;31.38;;;2.60;86.50;;;;;;4993345;28;20450;-74
2022/03/12 06:18:08;;;;;;;34.30;31.73;;;2.60;86.60;;;;;;4996410;28;20079;-73
2022/03/12 06:20:37;;;;;;;35.35;32.33;;;2.60;86.90;;;;;;5005479;28;20596;-74
2022/03/12 06:23:05;;;;;;;33.05;30.45;;;2.60;86.60;;;;;;5011557;28;20045;-75
2022/03/12 06:25:33;;;;;;;32.40;30.00;;;2.60;86.70;;;;;;4990598;28;20524;-73
2022/03/12 06:28:00;;;;;;;32.83;30.25;;;2.60;86.30;;;;;;5007631;28;20080;-71
2022/03/12 06:30:28;;;;;;;31.38;29.08;;;2.60;86.90;;;;;;4978804;28;20056;-74
2022/03/12 06:32:56;;;;;;;32.58;30.08;;;2.70;86.20;;;;;;5009960;28;20057;-72
2022/03/12 06:35:25;;;;;;;32.60;29.92;;;2.80;86.80;;;;;;4993144;28;20050;-72
2022/03/12 06:37:52;;;;;;;32.85;30.48;;;2.70;86.20;;;;;;5010417;28;20119;-72
2022/03/12 06:40:20;;;;;;;32.75;30.38;;;2.80;86.70;;;;;;4992200;28;20268;-73
2022/03/12 06:42:51;;;;;;;32.97;30.45;;;2.80;86.00;;;;;;5010406;28;20049;-73
2022/03/12 06:45:18;;;;;;;32.88;30.23;;;2.90;86.40;;;;;;4974802;28;20332;-73
2022/03/12 06:47:46;;;;;;;32.03;29.73;;;2.90;87.00;;;;;;4994043;28;20500;-72
2022/03/12 06:50:17;;;;;;;32.88;30.25;;;3.00;86.60;;;;;;5009531;28;20049;-72
2022/03/12 06:52:47;;;;;;;32.65;29.67;;;3.00;86.10;;;;;;4972424;28;20450;-73
2022/03/12 06:55:20;;;;;;;32.22;29.88;;;3.00;86.90;;;;;;4990654;28;20304;-72
2022/03/12 06:57:47;;;;;;;31.77;29.48;;;3.00;86.60;;;;;;5009092;28;20060;-72
2022/03/12 07:00:18;;;;;;;32.50;29.95;;;3.00;86.70;;;;;;4989288;28;20050;-72
2022/03/12 07:02:45;;;;;;;33.38;30.77;;;3.00;86.40;;;;;;4987662;28;20041;-73
2022/03/12 07:05:12;;;;;;;33.45;30.85;;;3.00;86.30;;;;;;5009684;28;20136;-72
2022/03/12 07:07:40;;;;;;;32.03;29.35;;;3.00;86.40;;;;;;4992410;28;20053;-72
2022/03/12 07:10:08;;;;;;;32.85;30.30;;;3.00;85.80;;;;;;4989806;28;20041;-72
2022/03/12 07:12:37;;;;;;;31.85;29.30;;;3.10;85.90;;;;;;4991300;28;20365;-73
2022/03/12 07:15:05;;;;;;;31.70;29.30;;;3.10;86.30;;;;;;5010024;28;20068;-72
2022/03/12 07:17:32;;;;;;;32.97;30.02;;;3.10;85.90;;;;;;4991875;28;20049;-76
2022/03/12 07:19:59;;;;;;;35.60;32.90;;;3.10;85.80;;;;;;5000620;28;20053;-74
2022/03/12 07:22:27;;;;;;;33.78;31.23;;;3.20;86.30;;;;;;5031127;23;20056;-75
2022/03/12 07:24:53;;;;;;;31.63;29.13;;;3.20;86.00;;;;;;5007167;28;20133;-75
2022/03/12 07:27:20;;;;;;;34.85;31.88;;;3.30;85.90;;;;;;4997833;28;20096;-74
2022/03/12 07:29:47;;;;;;;31.70;29.40;;;3.30;85.90;;;;;;4986604;28;20148;-74
2022/03/12 07:32:14;;;;;;;30.98;28.67;;;3.20;85.70;;;;;;4981996;28;20046;-75
2022/03/12 07:34:41;;;;;;;33.00;30.25;;;3.20;85.80;;;;;;4983312;28;20274;-74
2022/03/12 07:37:09;;;;;;;34.10;31.23;;;3.30;86.90;;;;;;4999135;28;20606;-76
2022/03/12 07:39:36;;;;;;;35.28;32.65;;;3.40;85.80;;;;;;5000231;28;20452;-75
2022/03/12 07:42:03;;;;;;;37.53;34.95;;;3.40;86.00;;;;;;4992873;28;20129;-75
2022/03/12 07:44:30;;;;;;;36.60;34.10;;;3.40;86.00;;;;;;4979788;28;20348;-74
2022/03/12 07:46:58;;;;;;;36.03;33.28;;;3.50;86.30;;;;;;4979470;28;20054;-75
2022/03/12 07:49:25;;;;;;;36.60;33.65;;;3.50;86.20;;;;;;4997301;28;20078;-75
2022/03/12 07:51:53;;;;;;;35.80;33.10;;;3.60;86.50;;;;;;4972973;28;20097;-75
2022/03/12 07:54:19;;;;;;;39.05;36.15;;;3.80;86.80;;;;;;4969340;28;20116;-74
2022/03/12 07:56:46;;;;;;;39.78;36.75;;;3.90;86.60;;;;;;4979643;28;20141;-75
2022/03/12 07:59:13;;;;;;;38.63;36.05;;;4.00;86.50;;;;;;4980532;28;20085;-75
2022/03/12 08:01:40;;;;;;;40.60;37.50;;;4.00;85.90;;;;;;4990096;28;20515;-75
2022/03/12 08:04:07;;;;;;;38.35;35.35;;;4.10;86.30;;;;;;4983164;28;20077;-75
2022/03/12 08:06:34;;;;;;;37.20;34.55;;;4.20;85.50;;;;;;4982563;28;20129;-75
2022/03/12 08:09:01;;;;;;;37.38;34.55;;;4.30;85.60;;;;;;5000350;28;20046;-75
2022/03/12 08:11:32;;;;;;;36.38;33.45;;;4.50;85.30;;;;;;4968448;28;20713;-75
2022/03/12 08:14:02;;;;;;;39.92;36.88;;;4.60;84.50;;;;;;4944849;28;20125;-74
2022/03/12 08:16:30;;;;;;;40.15;37.13;;;4.70;85.20;;;;;;4960905;28;20113;-74
2022/03/12 08:18:57;;;;;;;40.08;37.33;;;4.90;84.50;;;;;;4961865;28;20059;-75
2022/03/12 08:21:24;;;;;;;44.95;40.63;;;5.20;84.20;;;;;;4972920;28;20051;-75
2022/03/12 08:23:51;;;;;;;46.22;42.00;;;5.30;83.90;;;;;;4963481;28;20054;-75
2022/03/12 08:26:18;;;;;;;42.38;39.28;;;5.40;83.40;;;;;;4962183;28;20136;-75
2022/03/12 08:28:46;;;;;;;40.10;37.40;;;5.50;83.20;;;;;;4982034;28;20050;-75
2022/03/12 08:31:15;;;;;;;41.50;38.50;;;5.60;83.10;;;;;;4990633;28;20042;-75
2022/03/12 08:33:42;;;;;;;41.83;38.50;;;5.80;83.40;;;;;;4983629;28;20562;-76
2022/03/12 08:36:09;;;;;;;39.80;36.58;;;5.80;83.40;;;;;;4984478;28;20133;-75
2022/03/12 08:38:37;;;;;;;39.08;36.38;;;5.80;84.50;;;;;;4984592;28;20078;-75
2022/03/12 08:41:05;;;;;;;41.45;38.47;;;5.80;83.80;;;;;;4979518;28;20070;-75
2022/03/12 08:43:33;;;;;;;40.95;38.13;;;6.00;84.70;;;;;;4965371;28;20203;-74
2022/03/12 08:46:01;;;;;;;41.75;38.55;;;6.00;83.90;;;;;;4946534;28;20138;-75
2022/03/12 08:48:29;;;;;;;44.10;40.47;;;6.10;83.80;;;;;;4965831;28;20122;-75
2022/03/12 08:50:56;;;;;;;43.90;40.58;;;6.30;84.30;;;;;;5002638;28;20108;-77
2022/03/12 08:53:27;;;;;;;43.13;40.03;;;6.30;83.40;;;;;;4931864;28;20058;-76
2022/03/12 08:55:54;;;;;;;42.50;39.55;;;6.50;83.90;;;;;;4981103;28;20540;-76
2022/03/12 08:58:23;;;;;;;42.50;39.40;;;6.60;84.10;;;;;;4984443;28;20070;-77
2022/03/12 09:00:52;;;;;;;42.80;39.80;;;6.90;84.10;;;;;;4990848;28;20344;-78
2022/03/12 09:03:22;;;;;;;44.67;41.25;;;7.00;82.70;;;;;;4982934;28;20077;-77
2022/03/12 09:05:50;;;;;;;44.35;40.97;;;7.00;82.90;;;;;;4982067;28;20108;-76
2022/03/12 09:08:17;;;;;;;43.55;40.35;;;7.40;83.30;;;;;;4966837;28;20109;-77
2022/03/12 09:10:45;;;;;;;42.20;39.13;;;7.80;82.30;;;;;;4965470;28;20074;-77
2022/03/12 09:13:13;;;;;;;45.20;42.00;;;7.80;81.30;;;;;;4965915;28;20138;-77
2022/03/12 09:15:41;;;;;;;41.20;38.25;;;7.90;80.90;;;;;;4964584;28;20042;-77
2022/03/12 09:18:10;;;;;;;43.92;40.95;;;7.70;81.80;;;;;;4966253;28;20046;-75
2022/03/12 09:20:46;;;;;;;44.92;41.92;;;7.30;81.60;;;;;;4948703;28;20062;-76
2022/03/12 09:23:15;;;;;;;46.15;42.78;;;7.20;82.50;;;;;;4980527;28;20050;-75
2022/03/12 09:25:42;;;;;;;43.53;40.53;;;7.20;82.70;;;;;;4982454;28;20508;-75
2022/03/12 09:28:10;;;;;;;44.53;41.25;;;7.40;83.00;;;;;;4983871;28;20364;-76
2022/03/12 09:30:38;;;;;;;45.33;41.85;;;7.60;83.20;;;;;;4990191;28;20240;-76
2022/03/12 09:33:06;;;;;;;43.97;40.97;;;7.90;83.50;;;;;;4990384;28;20435;-75
2022/03/12 09:35:34;;;;;;;43.00;40.10;;;8.20;83.80;;;;;;4965823;28;20213;-75
2022/03/12 09:38:02;;;;;;;43.67;40.78;;;7.90;81.60;;;;;;4982563;28;20414;-76
2022/03/12 09:40:30;;;;;;;45.42;42.33;;;7.80;83.00;;;;;;4981769;28;20069;-76
2022/03/12 09:42:58;;;;;;;47.35;44.17;;;8.10;83.30;;;;;;4981082;28;20113;-76
2022/03/12 09:45:26;;;;;;;46.97;43.65;;;8.20;83.00;;;;;;4962677;28;20051;-75
2022/03/12 09:47:52;;;;;;;46.88;43.42;;;8.10;83.30;;;;;;4953496;28;20085;-75
2022/03/12 09:50:20;;;;;;;41.85;39.10;;;8.40;84.20;;;;;;5002429;28;20053;-75
2022/03/12 09:52:48;;;;;;;45.53;42.33;;;8.30;83.80;;;;;;4985151;28;20053;-76
2022/03/12 09:55:16;;;;;;;42.60;39.67;;;8.10;84.10;;;;;;4978073;28;20096;-75
2022/03/12 09:57:44;;;;;;;43.22;40.35;;;8.30;84.80;;;;;;4980241;28;20459;-75
2022/03/12 10:00:12;;;;;;;44.30;41.17;;;8.50;84.10;;;;;;4989424;28;20069;-76
2022/03/12 10:02:39;;;;;;;46.17;42.80;;;8.80;85.00;;;;;;4987990;28;20072;-76
2022/03/12 10:05:07;;;;;;;46.55;43.22;;;9.00;85.50;;;;;;4967813;28;20769;-75
2022/03/12 10:07:34;;;;;;;43.20;39.75;;;9.20;84.70;;;;;;4977531;28;20141;-77
2022/03/12 10:10:01;;;;;;;45.10;41.80;;;9.20;84.10;;;;;;4961065;28;20050;-78
2022/03/12 10:12:28;;;;;;;44.30;41.03;;;9.20;85.80;;;;;;4941656;29;20101;-76
2022/03/12 10:14:58;;;;;;;39.88;36.72;;;9.00;86.30;;;;;;4952389;28;20058;-76
2022/03/12 10:17:24;;;;;;;40.10;37.28;;;9.00;85.60;;;;;;4944785;28;20105;-75
2022/03/12 10:19:51;;;;;;;40.63;37.10;;;9.30;85.80;;;;;;4962564;28;20109;-76
2022/03/12 10:22:19;;;;;;;37.97;35.00;;;9.50;86.30;;;;;;4961792;28;20057;-76
2022/03/12 10:24:45;;;;;;;37.50;34.58;;;9.60;86.80;;;;;;4961989;28;20323;-75
2022/03/12 10:27:12;;;;;;;38.88;35.67;;;9.90;87.00;;;;;;4977652;28;20140;-75
2022/03/12 10:29:40;;;;;;;36.70;33.85;;;10.00;86.30;;;;;;4965828;28;20546;-76
2022/03/12 10:32:21;;;;;;;39.03;35.83;;;9.80;86.40;;;;;;4993886;28;20447;-76
2022/03/12 10:34:52;;;;;;;38.10;34.90;;;9.80;86.20;;;;;;4946432;28;20042;-76
2022/03/12 10:37:21;;;;;;;36.42;33.33;;;10.20;86.10;;;;;;4927496;28;20422;-76
2022/03/12 10:40:03;;;;;;;40.92;37.50;;;10.20;85.80;;;;;;4942751;29;20105;-76
2022/03/12 10:42:31;;;;;;;38.13;34.53;;;10.30;86.80;;;;;;4957046;28;20055;-76
2022/03/12 10:45:10;;;;;;;46.97;43.55;;;10.50;86.50;;;;;;4957399;28;20137;-76
2022/03/12 10:47:43;;;;;;;45.53;42.28;;;10.40;86.20;;;;;;4981516;28;20086;-76
2022/03/12 10:50:17;;;;;;;46.83;43.55;;;10.70;87.90;;;;;;5000425;28;20124;-76
2022/03/12 10:52:49;;;;;;;45.38;42.10;;;11.00;86.00;;;;;;4997872;28;20535;-75
2022/03/12 10:55:33;;;;;;;45.55;42.38;;;11.10;85.10;;;;;;4970465;28;20050;-76
2022/03/12 10:58:02;;;;;;;47.70;44.35;;;10.70;85.80;;;;;;4981119;28;20057;-76
2022/03/12 11:00:32;;;;;;;45.92;42.67;;;10.50;86.20;;;;;;4987925;28;20531;-75
2022/03/12 11:03:01;;;;;;;46.53;43.08;;;10.70;87.10;;;;;;4994694;28;20045;-74
2022/03/12 11:05:32;;;;;;;45.83;42.50;;;11.10;86.10;;;;;;5000162;28;20033;-74
2022/03/12 11:08:08;;;;;;;47.25;43.90;;;11.50;87.70;;;;;;4962239;28;20173;-74
2022/03/12 11:10:37;;;;;;;48.47;44.95;;;11.80;86.60;;;;;;4963053;28;20516;-75
2022/03/12 11:13:04;;;;;;;45.03;41.90;;;11.90;86.00;;;;;;4959220;28;20051;-74
2022/03/12 11:15:32;;;;;;;45.28;41.92;;;11.70;85.50;;;;;;4961830;28;20050;-75
2022/03/12 11:18:05;;;;;;;45.80;42.70;;;11.80;87.50;;;;;;4957195;28;20058;-74
2022/03/12 11:20:36;;;;;;;47.08;43.90;;;12.00;89.10;;;;;;4974881;28;20112;-76
2022/03/12 11:23:12;;;;;;;49.08;44.78;;;11.90;89.50;;;;;;4962427;28;20089;-75
2022/03/12 11:25:59;;;;;;;47.47;43.85;;;12.00;90.10;;;;;;4985160;28;20519;-75
2022/03/12 11:28:30;;;;;;;46.58;43.17;;;11.90;89.90;;;;;;4963569;28;20118;-75
2022/03/12 11:30:57;;;;;;;47.00;43.60;;;12.20;90.80;;;;;;4970325;28;20078;-75
2022/03/12 11:33:26;;;;;;;45.10;41.70;;;12.60;90.80;;;;;;4985271;28;20176;-75
2022/03/12 11:36:09;;;;;;;49.65;46.05;;;12.70;89.70;;;;;;4966673;28;20485;-74
2022/03/12 11:38:37;;;;;;;46.92;43.70;;;12.50;89.20;;;;;;4962809;28;20395;-75
2022/03/12 11:41:08;;;;;;;47.30;43.65;;;12.70;90.10;;;;;;4964353;28;20101;-74
2022/03/12 11:43:40;;;;;;;46.05;42.65;;;12.80;90.20;;;;;;4961792;28;20528;-75
2022/03/12 11:46:10;;;;;;;48.38;44.38;;;12.70;90.60;;;;;;4943094;28;20269;-74
2022/03/12 11:48:38;;;;;;;45.78;42.28;;;12.60;90.90;;;;;;4985719;28;20053;-75
2022/03/12 11:51:22;;;;;;;46.85;43.58;;;12.50;91.10;;;;;;4980931;28;20424;-75
2022/03/12 11:53:50;;;;;;;46.67;43.13;;;12.60;91.80;;;;;;4982032;28;20081;-75
2022/03/12 11:56:17;;;;;;;46.88;43.42;;;12.80;92.40;;;;;;4979818;28;20487;-75
2022/03/12 11:58:45;;;;;;;46.58;43.28;;;12.80;92.40;;;;;;4968855;28;20812;-76
2022/03/12 12:01:20;;;;;;;47.30;43.80;;;12.90;92.80;;;;;;4984838;28;20108;-76
2022/03/12 12:03:48;;;;;;;47.28;43.85;;;13.10;93.30;;;;;;4981617;28;20066;-76
2022/03/12 12:06:15;;;;;;;45.67;42.22;;;13.20;93.80;;;;;;4996499;28;20043;-74
2022/03/12 12:08:43;;;;;;;45.90;42.60;;;13.20;93.80;;;;;;4980650;28;20125;-76
2022/03/12 12:11:11;;;;;;;45.38;41.78;;;13.40;93.90;;;;;;4962584;28;20155;-76
2022/03/12 12:13:44;;;;;;;45.15;41.72;;;13.40;91.70;;;;;;4961295;28;20595;-74
2022/03/12 12:16:15;;;;;;;46.15;42.67;;;13.20;91.30;;;;;;4979997;28;20058;-76
2022/03/12 12:18:42;;;;;;;44.25;41.28;;;13.00;92.60;;;;;;4974249;28;20113;-76
2022/03/12 12:21:16;;;;;;;45.75;42.55;;;13.10;92.60;;;;;;4960014;28;20142;-76
2022/03/12 12:23:43;;;;;;;45.35;42.15;;;13.40;91.60;;;;;;4960411;28;20176;-74
2022/03/12 12:26:11;;;;;;;46.22;42.58;;;13.40;90.90;;;;;;4979314;28;20073;-74
2022/03/12 12:28:56;;;;;;;42.40;39.60;;;13.40;91.70;;;;;;4960247;28;20062;-75
2022/03/12 12:31:25;;;;;;;44.35;41.08;;;13.60;90.90;;;;;;4985090;28;20559;-75
2022/03/12 12:33:56;;;;;;;44.75;41.30;;;13.30;91.70;;;;;;4962679;28;20161;-75
2022/03/12 12:36:22;;;;;;;40.90;37.53;;;13.40;91.90;;;;;;4962503;28;20050;-74
2022/03/12 12:39:13;;;;;;;44.67;41.63;;;13.60;91.80;;;;;;4961562;28;20394;-75
2022/03/12 12:42:05;;;;;;;45.15;41.85;;;13.20;91.80;;;;;;4958593;28;20045;-75
2022/03/12 12:44:44;;;;;;;45.30;42.17;;;13.10;92.20;;;;;;4974890;28;20388;-75
2022/03/12 12:47:18;;;;;;;46.20;42.95;;;13.00;92.40;;;;;;4979200;28;20042;-76